Terminal Aerodrome Forecast
Issued by NWS

Home | Current Version | Previous Version | Text Only | Print | Product List | Glossary On
Versions: 1 2 3 4 5 6 7 8 9 10 11 12 13 14 15 16 17 18 19 20 21 22 23 24
000
FTUS46 KLOX 180300 AAA
TAFLAX
TAF AMD
KLAX 180320Z 1803/1906 27012KT P6SM SKC
     FM180400 25008KT P6SM SKC
     FM180800 VRB03KT P6SM SKC
     FM181300 11004KT 6SM BR VCFG SCT001
     FM181600 VRB05KT P6SM SKC
     FM181800 24006KT P6SM SKC
     FM182100 24012KT P6SM SKC
     FM190300 25009KT P6SM SKC=

USA.gov is the U.S. government's official web portal to all federal, state and local government web resources and services.